Time;durP1;ratioP1;P1;durP2;ratioP2;P2;SDS_P1;SDS_P2;PMS_P1;PMS_P2;Temp;Humidity;BMP_temperature;BMP_pressure;BME280_temperature;BME280_humidity;BME280_pressure;Samples;Min_cycle;Max_cycle;Signal;HPM_P1;HPM_P2
2022/11/04 00:00:44;;;;;;;;;;;;;;;13.65;51.19;99949.06;3132491;28;20075;-68
2022/11/04 00:02:16;;;;;;;;;;;;;;;13.58;51.07;99942.47;3133198;28;19924;-68
2022/11/04 00:03:48;;;;;;;;;;;;;;;13.65;51.20;99949.06;3140886;28;19921;-69
2022/11/04 00:05:19;;;;;;;;;;;;;;;13.65;50.91;99954.28;3141262;28;20007;-68
2022/11/04 00:06:51;;;;;;;;;;;;;;;13.66;51.10;99955.97;3132709;28;19921;-68
2022/11/04 00:08:24;;;;;;;;;;;;;;;13.66;50.73;99955.97;3132521;28;19924;-68
2022/11/04 00:09:56;;;;;;;;;;;;;;;13.67;50.95;99948.97;3143379;28;20361;-68
2022/11/04 00:13:16;;;;;;;;;;;;;;;13.68;50.63;99948.88;3133122;28;19929;-68
2022/11/04 00:14:47;;;;;;;;;;;;;;;13.67;50.67;99949.81;3132739;28;20285;-68
2022/11/04 00:18:06;;;;;;;;;;;;;;;13.67;50.54;99948.97;3133613;28;19920;-68
2022/11/04 00:29:06;;;;;;;;;;;;;;;13.67;50.72;99948.97;3132980;28;19920;-68
2022/11/04 00:30:37;;;;;;;;;;;;;;;13.65;50.46;99947.28;3132117;28;19921;-68
2022/11/04 00:33:57;;;;;;;;;;;;;;;13.65;50.56;99949.91;3132543;28;19924;-68
2022/11/04 00:35:30;;;;;;;;;;;;;;;13.64;50.62;99942.97;3142695;28;20013;-68
2022/11/04 00:37:01;;;;;;;;;;;;;;;13.64;50.40;99944.75;3141599;28;19920;-68
2022/11/04 00:38:33;;;;;;;;;;;;;;;13.63;50.83;99949.13;3138634;28;19929;-69
2022/11/04 00:40:05;;;;;;;;;;;;;;;13.63;50.77;99949.13;3139038;28;19921;-69
2022/11/04 00:41:37;;;;;;;;;;;;;;;13.63;50.34;99949.13;3131889;28;19921;-69
2022/11/04 00:43:07;;;;;;;;;;;;;;;13.62;50.55;99944.84;3132225;28;19990;-68
2022/11/04 00:44:39;;;;;;;;;;;;;;;13.63;50.40;99953.53;3132614;28;20320;-69
2022/11/04 00:46:10;;;;;;;;;;;;;;;13.62;50.41;99944.00;3132314;28;19921;-69
2022/11/04 00:47:42;;;;;;;;;;;;;;;13.60;50.33;99948.47;3132300;28;19931;-69
2022/11/04 00:49:13;;;;;;;;;;;;;;;13.59;50.41;99954.63;3132560;28;19924;-69
2022/11/04 00:50:46;;;;;;;;;;;;;;;13.57;50.53;99949.47;3133482;28;19974;-69
2022/11/04 00:52:16;;;;;;;;;;;;;;;13.57;50.71;99954.69;3136381;28;19975;-69
2022/11/04 00:53:48;;;;;;;;;;;;;;;13.56;50.36;99960.88;3140117;28;20370;-69
2022/11/04 00:55:19;;;;;;;;;;;;;;;13.56;50.41;99960.03;3134677;28;20337;-69
2022/11/04 00:56:50;;;;;;;;;;;;;;;13.55;50.78;99958.34;3140342;28;19970;-69
2022/11/04 00:58:22;;;;;;;;;;;;;;;13.52;50.73;99956.75;3134821;28;19924;-69
2022/11/04 00:59:52;;;;;;;;;;;;;;;13.50;50.88;99952.53;3145222;28;20327;-70
2022/11/04 01:01:24;;;;;;;;;;;;;;;13.49;50.71;99949.06;3134984;28;19920;-70
2022/11/04 01:02:55;;;;;;;;;;;;;;;13.49;50.57;99942.97;3134891;28;19921;-69
2022/11/04 01:04:27;;;;;;;;;;;;;;;13.48;50.57;99944.75;3141144;28;19924;-69
2022/11/04 01:06:00;;;;;;;;;;;;;;;13.48;50.88;99944.75;3137901;28;19955;-69
2022/11/04 01:07:31;;;;;;;;;;;;;;;13.48;50.60;99939.50;3134379;28;20074;-69
2022/11/04 01:09:04;;;;;;;;;;;;;;;13.48;50.69;99949.13;3135126;28;19921;-69
2022/11/04 01:10:43;;;;;;;;;;;;;;;13.47;50.62;99942.22;3134859;28;20509;-69
2022/11/04 01:12:15;;;;;;;;;;;;;;;13.46;50.66;99943.13;3134404;28;19927;-69
2022/11/04 01:13:49;;;;;;;;;;;;;;;13.43;51.00;99945.00;3141384;28;19925;-69
2022/11/04 01:15:21;;;;;;;;;;;;;;;13.40;51.13;99945.19;3134688;28;19927;-69
2022/11/04 01:16:51;;;;;;;;;;;;;;;13.38;51.25;99943.56;3134509;28;20334;-69
2022/11/04 01:18:23;;;;;;;;;;;;;;;13.33;51.55;99940.34;3134928;28;19983;-69
2022/11/04 01:19:55;;;;;;;;;;;;;;;13.25;51.90;99940.78;3142712;28;19920;-70
2022/11/04 01:21:27;;;;;;;;;;;;;;;13.18;52.46;99942.84;3136507;28;20289;-69
2022/11/04 01:22:59;;;;;;;;;;;;;;;13.12;52.69;99939.72;3134552;28;19924;-69
2022/11/04 01:24:30;;;;;;;;;;;;;;;13.07;52.46;99941.72;3134356;28;19921;-69
2022/11/04 01:26:04;;;;;;;;;;;;;;;13.00;53.15;99943.81;3134543;28;19994;-69
2022/11/04 01:27:36;;;;;;;;;;;;;;;12.94;53.05;99944.97;3137406;28;19921;-69
2022/11/04 01:29:08;;;;;;;;;;;;;;;12.89;52.91;99935.69;3134731;28;19925;-69
2022/11/04 01:30:39;;;;;;;;;;;;;;;12.85;52.72;99932.41;3133691;28;20309;-68
2022/11/04 01:32:11;;;;;;;;;;;;;;;12.81;53.10;99941.34;3133933;28;19928;-68
2022/11/04 01:33:42;;;;;;;;;;;;;;;12.75;53.24;99939.03;3133950;28;19925;-69
2022/11/04 01:35:14;;;;;;;;;;;;;;;12.74;52.80;99937.34;3141376;28;19978;-69
2022/11/04 01:36:47;;;;;;;;;;;;;;;12.72;52.98;99934.81;3141637;28;19977;-68
2022/11/04 01:38:19;;;;;;;;;;;;;;;12.73;52.95;99943.50;3135363;28;19979;-68
2022/11/04 01:39:50;;;;;;;;;;;;;;;12.71;52.61;99940.94;3141193;28;20030;-68
2022/11/04 01:41:22;;;;;;;;;;;;;;;12.70;52.87;99933.19;3136427;28;19928;-68
2022/11/04 01:42:54;;;;;;;;;;;;;;;12.71;52.34;99933.09;3133500;28;19924;-69
2022/11/04 01:44:44;;;;;;;;;;;;;;;12.70;52.44;99930.59;3133480;28;19920;-69
2022/11/04 01:46:21;;;;;;;;;;;;;;;12.68;52.29;99929.81;3133284;28;20409;-68
2022/11/04 01:47:58;;;;;;;;;;;;;;;12.68;52.48;99933.25;3135635;28;20294;-68
2022/11/04 01:49:31;;;;;;;;;;;;;;;12.68;52.26;99929.81;3143114;28;20443;-68
2022/11/04 01:51:03;;;;;;;;;;;;;;;12.66;52.25;99924.69;3133409;28;19947;-68
2022/11/04 01:52:41;;;;;;;;;;;;;;;12.67;52.15;99921.13;3142187;28;19927;-69
2022/11/04 01:54:13;;;;;;;;;;;;;;;12.68;51.83;99927.19;3136953;28;20325;-68
2022/11/04 01:55:50;;;;;;;;;;;;;;;12.67;52.02;99926.38;3141356;28;19970;-68
2022/11/04 01:57:25;;;;;;;;;;;;;;;12.67;52.12;99925.53;3133134;28;19944;-69
2022/11/04 01:58:59;;;;;;;;;;;;;;;12.66;51.69;99923.81;3133242;28;20368;-67
2022/11/04 02:00:31;;;;;;;;;;;;;;;12.66;51.92;99924.69;3133506;28;19997;-68
2022/11/04 02:02:01;;;;;;;;;;;;;;;12.67;51.74;99923.75;3131985;28;20011;-68
2022/11/04 02:03:36;;;;;;;;;;;;;;;12.67;51.46;99920.31;3132986;28;19935;-68
2022/11/04 02:05:07;;;;;;;;;;;;;;;12.66;51.53;99919.47;3132986;28;20002;-69
2022/11/04 02:06:38;;;;;;;;;;;;;;;12.67;51.44;99921.13;3132829;28;20069;-69
2022/11/04 02:08:12;;;;;;;;;;;;;;;12.67;51.75;99917.69;3133136;28;19924;-69
2022/11/04 02:09:43;;;;;;;;;;;;;;;12.65;51.75;99916.91;3140997;28;19954;-69
2022/11/04 02:13:02;;;;;;;;;;;;;;;12.58;51.99;99915.56;3133557;28;19921;-69
2022/11/04 02:14:33;;;;;;;;;;;;;;;12.52;52.18;99908.88;3142514;28;19931;-69
2022/11/04 02:16:10;;;;;;;;;;;;;;;12.47;52.41;99909.09;3137885;28;19921;-69
2022/11/04 02:18:02;;;;;;;;;;;;;;;12.41;52.55;99904.19;3133805;28;19974;-70
2022/11/04 02:19:48;;;;;;;;;;;;;;;12.34;52.64;99900.22;3139212;28;19924;-70
2022/11/04 02:21:38;;;;;;;;;;;;;;;12.28;52.74;99903.97;3136878;28;19921;-70
2022/11/04 02:23:30;;;;;;;;;;;;;;;12.23;53.17;99898.13;3136234;28;19925;-68
2022/11/04 02:25:16;;;;;;;;;;;;;;;12.18;53.13;99900.13;3116198;28;19924;-68
2022/11/04 02:27:08;;;;;;;;;;;;;;;12.18;52.97;99891.44;3134101;28;20008;-68
2022/11/04 02:28:53;;;;;;;;;;;;;;;12.18;52.95;99894.91;3133532;28;19943;-68
2022/11/04 02:30:29;;;;;;;;;;;;;;;12.19;52.59;99893.16;3133698;28;19921;-68
2022/11/04 02:32:06;;;;;;;;;;;;;;;12.19;52.71;99890.56;3133618;28;19921;-68
2022/11/04 02:33:41;;;;;;;;;;;;;;;12.17;52.59;99890.59;3133420;28;21221;-68
2022/11/04 02:35:17;;;;;;;;;;;;;;;12.17;52.60;99892.38;3141637;28;19989;-68
2022/11/04 02:36:52;;;;;;;;;;;;;;;12.16;52.84;99888.09;3142305;28;19924;-69
2022/11/04 02:38:29;;;;;;;;;;;;;;;12.15;52.86;99886.38;3139844;28;19968;-69
2022/11/04 02:40:08;;;;;;;;;;;;;;;12.13;52.78;99883.88;3140396;28;19920;-68
2022/11/04 02:41:42;;;;;;;;;;;;;;;12.11;52.73;99879.63;3133436;28;20114;-69
2022/11/04 02:43:20;;;;;;;;;;;;;;;12.07;53.02;99894.63;3133703;28;19925;-69
2022/11/04 02:44:58;;;;;;;;;;;;;;;12.02;53.52;99892.22;3130043;28;19979;-69
2022/11/04 02:46:34;;;;;;;;;;;;;;;11.97;53.76;99893.38;3133368;28;19964;-69
2022/11/04 02:48:10;;;;;;;;;;;;;;;11.92;54.14;99888.38;3123605;28;20275;-68
2022/11/04 02:49:44;;;;;;;;;;;;;;;11.90;53.74;99884.16;3124431;28;19967;-67
2022/11/04 02:51:19;;;;;;;;;;;;;;;11.88;53.92;99886.84;3127039;28;19925;-68
2022/11/04 02:52:56;;;;;;;;;;;;;;;11.88;53.60;99886.84;3138263;28;19924;-69
2022/11/04 02:54:31;;;;;;;;;;;;;;;11.90;53.34;99884.16;3125221;28;19925;-69
2022/11/04 02:56:04;;;;;;;;;;;;;;;11.91;53.23;99891.91;3124569;28;19931;-68
2022/11/04 02:57:36;;;;;;;;;;;;;;;11.87;53.60;99890.38;3123502;28;20786;-67
2022/11/04 02:59:13;;;;;;;;;;;;;;;11.87;53.48;99890.38;3123568;28;20043;-68
2022/11/04 03:00:46;;;;;;;;;;;;;;;11.86;53.37;99885.22;3124092;28;19924;-68
2022/11/04 03:02:22;;;;;;;;;;;;;;;11.85;53.33;99886.97;3124107;28;20103;-67
2022/11/04 03:03:59;;;;;;;;;;;;;;;11.83;53.88;99883.56;3126945;28;19925;-68
2022/11/04 03:05:32;;;;;;;;;;;;;;;11.80;53.81;99881.09;3134238;28;19924;-68
2022/11/04 03:07:03;;;;;;;;;;;;;;;11.78;53.70;99877.75;3132218;28;19978;-69
2022/11/04 03:08:45;;;;;;;;;;;;;;;11.76;53.58;99877.81;3124498;28;20757;-69
2022/11/04 03:10:20;;;;;;;;;;;;;;;11.78;53.57;99882.97;3123383;28;20126;-70
2022/11/04 03:11:54;;;;;;;;;;;;;;;11.78;53.28;99875.97;3123574;28;19925;-69
2022/11/04 03:13:29;;;;;;;;;;;;;;;11.80;53.49;99875.88;3122547;28;20028;-68
2022/11/04 03:15:01;;;;;;;;;;;;;;;11.81;53.28;99883.66;3124215;28;19931;-69
2022/11/04 03:16:37;;;;;;;;;;;;;;;11.81;53.35;99885.44;3124348;28;19935;-68
2022/11/04 03:18:16;;;;;;;;;;;;;;;11.80;53.47;99884.59;3123707;28;19955;-69
2022/11/04 03:19:53;;;;;;;;;;;;;;;11.80;53.48;99883.72;3130957;28;20404;-68
2022/11/04 03:21:25;;;;;;;;;;;;;;;11.79;53.31;99889.88;3125894;28;19983;-68
2022/11/04 03:22:59;;;;;;;;;;;;;;;11.77;53.67;99891.69;3123416;28;19924;-68
2022/11/04 03:24:31;;;;;;;;;;;;;;;11.74;53.60;99889.22;3124048;28;19931;-69
2022/11/04 03:26:07;;;;;;;;;;;;;;;11.71;53.60;99886.78;3123264;28;19968;-69
2022/11/04 03:27:45;;;;;;;;;;;;;;;11.67;53.91;99888.69;3122844;28;19928;-69
2022/11/04 03:29:21;;;;;;;;;;;;;;;11.64;54.19;99891.44;3123069;28;20256;-68
2022/11/04 03:30:55;;;;;;;;;;;;;;;11.63;53.99;99892.38;3129778;28;19931;-69
2022/11/04 03:32:36;;;;;;;;;;;;;;;11.58;54.07;99891.75;3123366;28;19924;-69
2022/11/04 03:34:10;;;;;;;;;;;;;;;11.54;54.46;99896.28;3128440;28;19982;-69
2022/11/04 03:35:41;;;;;;;;;;;;;;;11.51;54.55;99903.41;3132971;28;19993;-69
2022/11/04 03:37:13;;;;;;;;;;;;;;;11.47;54.47;99900.06;3134228;28;20022;-69
2022/11/04 03:38:45;;;;;;;;;;;;;;;11.46;54.45;99900.16;3129483;28;20027;-69
2022/11/04 03:40:18;;;;;;;;;;;;;;;11.46;54.31;99898.38;3133109;28;19924;-69
2022/11/04 03:41:51;;;;;;;;;;;;;;;11.44;54.50;99899.38;3130243;28;20138;-70
2022/11/04 03:43:26;;;;;;;;;;;;;;;11.41;54.55;99897.75;3123857;28;20015;-70
2022/11/04 03:44:59;;;;;;;;;;;;;;;11.37;54.58;99894.44;3123588;28;19967;-68
2022/11/04 03:46:31;;;;;;;;;;;;;;;11.34;54.87;99899.81;3123014;28;19924;-69
2022/11/04 03:48:03;;;;;;;;;;;;;;;11.33;54.86;99902.50;3127818;28;19924;-68
2022/11/04 03:49:36;;;;;;;;;;;;;;;11.31;54.89;99886.06;3122923;28;19986;-68
2022/11/04 03:51:09;;;;;;;;;;;;;;;11.29;54.48;99893.13;3122778;28;20737;-68
2022/11/04 03:52:40;;;;;;;;;;;;;;;11.27;54.53;99892.34;3133644;28;19923;-69
2022/11/04 03:54:13;;;;;;;;;;;;;;;11.26;54.67;99898.47;3128369;28;19928;-67
2022/11/04 03:56:01;;;;;;;;;;;;;;;11.24;54.65;99889.88;3124006;28;19931;-68
2022/11/04 03:57:41;;;;;;;;;;;;;;;11.21;54.60;99892.63;3123863;28;20402;-67
2022/11/04 03:59:21;;;;;;;;;;;;;;;11.21;54.60;99890.88;3123506;28;20726;-68
2022/11/04 04:00:58;;;;;;;;;;;;;;;11.24;54.54;99887.25;3123586;28;19970;-69
2022/11/04 04:02:34;;;;;;;;;;;;;;;11.19;55.21;99886.66;3124228;28;19931;-69
2022/11/04 04:04:08;;;;;;;;;;;;;;;11.14;55.17;99881.63;3126276;28;19990;-69
2022/11/04 04:05:44;;;;;;;;;;;;;;;11.09;55.56;99887.06;3128009;28;20014;-69
2022/11/04 04:07:18;;;;;;;;;;;;;;;11.05;55.67;99887.28;3122386;28;20400;-69
2022/11/04 04:08:51;;;;;;;;;;;;;;;10.99;56.42;99890.16;3122400;28;19944;-69
2022/11/04 04:10:40;;;;;;;;;;;;;;;10.92;56.46;99889.59;3122670;28;19940;-68
2022/11/04 04:12:15;;;;;;;;;;;;;;;10.87;56.94;99892.41;3122089;28;19925;-69
2022/11/04 04:13:52;;;;;;;;;;;;;;;10.87;56.65;99886.34;3122305;28;20156;-69
2022/11/04 04:15:26;;;;;;;;;;;;;;;10.89;56.62;99895.78;3132036;28;19929;-69
2022/11/04 04:16:59;;;;;;;;;;;;;;;10.90;56.51;99897.47;3133183;28;19957;-69
2022/11/04 04:18:34;;;;;;;;;;;;;;;10.88;57.06;99893.25;3123834;28;19928;-68
2022/11/04 04:20:07;;;;;;;;;;;;;;;10.88;56.83;99890.63;3132143;28;19924;-68
2022/11/04 04:21:42;;;;;;;;;;;;;;;10.89;56.89;99894.94;3121679;28;19929;-69
2022/11/04 04:28:50;;;;;;;;;;;;;;;11.00;56.01;99879.66;3124995;28;19967;-68
2022/11/04 04:30:22;;;;;;;;;;;;;;;11.03;56.15;99891.69;3132492;28;19932;-68
2022/11/04 04:31:56;;;;;;;;;;;;;;;11.04;55.90;99888.19;3130175;28;19929;-68
2022/11/04 04:33:28;;;;;;;;;;;;;;;11.05;56.06;99890.72;3126256;28;19948;-68
2022/11/04 04:36:49;;;;;;;;;;;;;;;11.06;55.98;99886.34;3132427;28;19987;-68
2022/11/04 04:45:49;;;;;;;;;;;;;;;11.05;56.63;99887.28;3136366;28;19964;-68
2022/11/04 04:47:22;;;;;;;;;;;;;;;11.03;56.58;99883.88;3135126;28;19943;-67
2022/11/04 04:48:54;;;;;;;;;;;;;;;11.02;56.32;99893.47;3134601;28;20344;-67
2022/11/04 04:50:31;;;;;;;;;;;;;;;11.02;56.14;99890.84;3135364;28;19939;-68
2022/11/04 04:52:06;;;;;;;;;;;;;;;11.06;55.94;99892.44;3135010;28;19928;-68
2022/11/04 04:53:38;;;;;;;;;;;;;;;11.06;56.06;99889.81;3148376;28;19921;-68
2022/11/04 04:55:09;;;;;;;;;;;;;;;11.07;55.95;99891.50;3134883;28;20451;-68
2022/11/04 04:56:40;;;;;;;;;;;;;;;11.10;55.89;99901.78;3134912;28;20061;-68
2022/11/04 04:58:12;;;;;;;;;;;;;;;11.11;55.84;99895.66;3138897;28;20385;-69
2022/11/04 04:59:43;;;;;;;;;;;;;;;11.13;55.87;99890.38;3134765;28;20364;-68
2022/11/04 05:01:14;;;;;;;;;;;;;;;11.13;55.90;99888.63;3134872;28;20022;-68
2022/11/04 05:02:46;;;;;;;;;;;;;;;11.14;55.55;99897.28;3134703;28;19951;-68
2022/11/04 05:04:17;;;;;;;;;;;;;;;11.13;55.92;99893.81;3140286;28;19924;-69
2022/11/04 05:05:49;;;;;;;;;;;;;;;11.08;56.31;99895.78;3138903;28;19920;-68
2022/11/04 05:07:21;;;;;;;;;;;;;;;11.05;56.24;99898.53;3134637;28;19970;-68
2022/11/04 05:08:53;;;;;;;;;;;;;;;11.02;56.63;99893.47;3134637;28;20007;-69
2022/11/04 05:10:24;;;;;;;;;;;;;;;11.03;56.15;99895.19;3134600;28;19925;-70
2022/11/04 05:11:55;;;;;;;;;;;;;;;11.00;56.87;99890.06;3137312;28;19963;-69
2022/11/04 05:13:28;;;;;;;;;;;;;;;10.99;56.63;99892.78;3142156;28;19944;-69
2022/11/04 05:15:00;;;;;;;;;;;;;;;10.99;56.51;99893.59;3134656;28;20358;-70
2022/11/04 05:16:31;;;;;;;;;;;;;;;11.00;56.20;99897.91;3134984;28;19920;-69
2022/11/04 05:18:03;;;;;;;;;;;;;;;11.03;56.13;99896.91;3134864;28;19974;-70
2022/11/04 05:19:35;;;;;;;;;;;;;;;11.05;56.38;99890.72;3140342;28;19928;-70
2022/11/04 05:21:07;;;;;;;;;;;;;;;11.07;55.99;99908.91;3139022;28;20337;-71
2022/11/04 05:22:40;;;;;;;;;;;;;;;11.08;56.13;99903.63;3139208;28;19924;-71
2022/11/04 05:24:12;;;;;;;;;;;;;;;11.09;56.31;99901.84;3141152;28;19986;-68
2022/11/04 05:25:44;;;;;;;;;;;;;;;11.11;56.40;99905.25;3138387;28;19939;-71
2022/11/04 05:27:15;;;;;;;;;;;;;;;11.12;56.02;99906.91;3144330;28;20354;-70
2022/11/04 05:28:47;;;;;;;;;;;;;;;11.16;55.77;99904.13;3134294;28;20290;-71
2022/11/04 05:30:18;;;;;;;;;;;;;;;11.19;55.74;99908.34;3141277;28;20275;-68
2022/11/04 05:31:50;;;;;;;;;;;;;;;11.22;55.93;99913.41;3134361;28;19921;-70
2022/11/04 05:33:21;;;;;;;;;;;;;;;11.25;55.63;99912.44;3134636;28;20415;-70
2022/11/04 05:34:52;;;;;;;;;;;;;;;11.27;55.79;99907.97;3144513;28;20002;-73
2022/11/04 05:36:23;;;;;;;;;;;;;;;11.27;55.71;99913.19;3144259;28;20593;-70
2022/11/04 05:37:56;;;;;;;;;;;;;;;11.29;55.79;99916.56;3144613;28;20042;-67
2022/11/04 05:39:28;;;;;;;;;;;;;;;11.34;55.39;99914.59;3142149;28;19980;-69
2022/11/04 05:41:00;;;;;;;;;;;;;;;11.37;55.46;99922.28;3144669;28;19920;-72
2022/11/04 05:42:30;;;;;;;;;;;;;;;11.38;55.68;99922.19;3134369;28;19928;-69
2022/11/04 05:44:03;;;;;;;;;;;;;;;11.39;55.48;99926.53;3134308;28;20378;-71
2022/11/04 05:45:34;;;;;;;;;;;;;;;11.41;55.73;99926.44;3133884;28;19978;-77
2022/11/04 05:47:06;;;;;;;;;;;;;;;11.46;55.57;99929.69;3134405;28;19925;-66
2022/11/04 05:48:37;;;;;;;;;;;;;;;11.48;55.59;99937.44;3134240;28;20385;-73
2022/11/04 05:50:09;;;;;;;;;;;;;;;11.49;55.77;99932.16;3137615;28;19924;-74
2022/11/04 05:51:41;;;;;;;;;;;;;;;11.50;55.67;99930.38;3146513;28;19954;-72
2022/11/04 05:53:14;;;;;;;;;;;;;;;11.48;56.20;99937.44;3153512;28;19993;-72
2022/11/04 05:54:46;;;;;;;;;;;;;;;11.46;55.88;99929.69;3145024;28;19920;-78
2022/11/04 05:56:17;;;;;;;;;;;;;;;11.45;56.08;99928.00;3136384;28;20335;-77
2022/11/04 05:57:49;;;;;;;;;;;;;;;11.47;56.06;99931.38;3133250;28;20031;-76
2022/11/04 05:59:21;;;;;;;;;;;;;;;11.49;56.03;99933.91;3133849;28;20416;-76
2022/11/04 06:00:52;;;;;;;;;;;;;;;11.50;56.03;99926.00;3134142;28;19946;-77
2022/11/04 06:02:24;;;;;;;;;;;;;;;11.52;55.94;99928.56;3133885;28;20007;-76
2022/11/04 06:03:55;;;;;;;;;;;;;;;11.52;56.22;99934.59;3133982;28;19920;-78
2022/11/04 06:05:27;;;;;;;;;;;;;;;11.52;56.16;99934.59;3144513;28;19927;-76
2022/11/04 06:06:58;;;;;;;;;;;;;;;11.53;56.45;99940.66;3134473;28;20048;-76
2022/11/04 06:08:31;;;;;;;;;;;;;;;11.54;56.35;99943.22;3139431;28;19920;-76
2022/11/04 06:10:03;;;;;;;;;;;;;;;11.54;56.34;99953.66;3135556;28;19928;-76
2022/11/04 06:11:35;;;;;;;;;;;;;;;11.54;56.58;99953.66;3143200;28;19928;-75
2022/11/04 06:13:06;;;;;;;;;;;;;;;11.51;56.89;99950.34;3143514;28;19975;-77
2022/11/04 06:14:38;;;;;;;;;;;;;;;11.47;57.30;99952.22;3137625;28;19920;-75
2022/11/04 06:16:08;;;;;;;;;;;;;;;11.45;57.18;99950.63;3136958;28;19921;-76
2022/11/04 06:17:40;;;;;;;;;;;;;;;11.49;56.92;99957.38;3135585;28;19943;-77
2022/11/04 06:19:11;;;;;;;;;;;;;;;11.51;57.02;99951.19;3139178;28;19935;-78
2022/11/04 06:20:43;;;;;;;;;;;;;;;11.53;56.79;99957.16;3144734;28;20257;-76
2022/11/04 06:22:15;;;;;;;;;;;;;;;11.58;56.62;99957.78;3136960;28;20465;-76
2022/11/04 06:23:47;;;;;;;;;;;;;;;11.63;56.48;99959.34;3134189;28;20336;-76
2022/11/04 06:25:19;;;;;;;;;;;;;;;11.68;56.25;99966.03;3141735;28;19924;-76
2022/11/04 06:26:51;;;;;;;;;;;;;;;11.72;56.10;99959.75;3136822;28;19978;-76
2022/11/04 06:28:21;;;;;;;;;;;;;;;11.78;55.96;99966.47;3133674;28;20035;-76
2022/11/04 06:29:53;;;;;;;;;;;;;;;11.82;55.59;99961.00;3136537;28;20009;-77
2022/11/04 06:31:24;;;;;;;;;;;;;;;11.87;55.57;99958.22;3141725;28;19940;-77
2022/11/04 06:32:56;;;;;;;;;;;;;;;11.90;55.61;99965.91;3132653;28;19955;-77
2022/11/04 06:34:27;;;;;;;;;;;;;;;11.96;55.17;99959.53;3132404;28;19951;-77
2022/11/04 06:35:58;;;;;;;;;;;;;;;11.97;55.43;99956.00;3143135;28;20443;-76
2022/11/04 06:37:30;;;;;;;;;;;;;;;11.99;55.27;99955.00;3144791;28;19932;-72
2022/11/04 06:39:03;;;;;;;;;;;;;;;12.02;55.44;99954.88;3144669;28;19947;-70
2022/11/04 06:40:35;;;;;;;;;;;;;;;12.01;55.39;99950.56;3145696;28;19924;-70
2022/11/04 06:42:07;;;;;;;;;;;;;;;12.12;55.37;99959.63;3135442;28;19928;-73
2022/11/04 06:43:38;;;;;;;;;;;;;;;12.18;55.14;99961.94;3132338;28;19936;-72
2022/11/04 06:45:11;;;;;;;;;;;;;;;12.25;55.24;99963.34;3132738;28;20460;-73
2022/11/04 06:46:43;;;;;;;;;;;;;;;12.32;54.93;99961.28;3132554;28;20381;-73
2022/11/04 06:48:14;;;;;;;;;;;;;;;12.33;54.67;99953.34;3133739;28;20401;-70
2022/11/04 06:49:46;;;;;;;;;;;;;;;12.45;54.74;99963.19;3144877;28;20326;-80
2022/11/04 06:51:17;;;;;;;;;;;;;;;12.46;54.87;99962.28;3144964;28;20777;-78
2022/11/04 06:52:48;;;;;;;;;;;;;;;12.45;54.65;99970.16;3148677;28;19924;-77
2022/11/04 06:54:21;;;;;;;;;;;;;;;12.43;54.97;99965.03;3142424;28;20325;-79
2022/11/04 06:55:53;;;;;;;;;;;;;;;12.42;54.86;99958.13;3132282;28;19970;-79
2022/11/04 06:57:24;;;;;;;;;;;;;;;12.43;54.81;99969.41;3132640;28;19982;-79
2022/11/04 06:58:56;;;;;;;;;;;;;;;12.42;55.01;99967.72;3133313;28;19928;-78
2022/11/04 07:00:28;;;;;;;;;;;;;;;12.43;54.89;99967.66;3132664;28;19963;-79
2022/11/04 07:02:00;;;;;;;;;;;;;;;12.46;54.57;99970.09;3132504;28;19983;-77
2022/11/04 07:03:31;;;;;;;;;;;;;;;12.50;54.67;99971.63;3132286;28;19978;-76
2022/11/04 07:05:03;;;;;;;;;;;;;;;12.53;54.49;99968.84;3135955;28;19978;-77
2022/11/04 07:06:35;;;;;;;;;;;;;;;12.58;54.48;99970.41;3135873;28;19994;-77
2022/11/04 07:08:06;;;;;;;;;;;;;;;12.63;54.13;99965.78;3132612;28;19925;-78
2022/11/04 07:09:40;;;;;;;;;;;;;;;12.65;54.15;99967.38;3133533;28;19921;-76
2022/11/04 07:11:11;;;;;;;;;;;;;;;12.68;54.32;99959.41;3132275;28;19982;-70
2022/11/04 07:12:43;;;;;;;;;;;;;;;12.71;54.03;99964.47;3133214;28;19978;-73
2022/11/04 07:14:15;;;;;;;;;;;;;;;12.75;54.09;99957.34;3133100;28;19925;-75
2022/11/04 07:15:46;;;;;;;;;;;;;;;12.82;53.85;99966.53;3142625;28;19925;-72
2022/11/04 07:17:18;;;;;;;;;;;;;;;12.90;53.80;99963.53;3145605;28;19924;-72
2022/11/04 07:18:50;;;;;;;;;;;;;;;12.95;53.96;99962.38;3143743;28;19920;-75
2022/11/04 07:22:34;;;;;;;;;;;;;;;13.03;53.80;99954.09;3104596;28;19925;-74
2022/11/04 07:24:06;;;;;;;;;;;;;;;13.06;53.52;99953.09;3132347;28;19925;-73
2022/11/04 07:25:39;;;;;;;;;;;;;;;13.09;53.67;99951.16;3133373;28;19928;-74
2022/11/04 07:27:11;;;;;;;;;;;;;;;13.09;53.54;99943.31;3138458;28;19924;-73
2022/11/04 07:28:42;;;;;;;;;;;;;;;13.10;53.68;99945.03;3133063;28;19986;-73
2022/11/04 07:30:14;;;;;;;;;;;;;;;13.10;53.42;99950.25;3133679;28;19924;-74
2022/11/04 07:31:45;;;;;;;;;;;;;;;13.11;53.80;99940.66;3132732;28;19928;-74
2022/11/04 07:33:17;;;;;;;;;;;;;;;13.13;53.58;99941.38;3141435;28;19949;-74
2022/11/04 07:34:49;;;;;;;;;;;;;;;13.14;53.73;99937.88;3134590;28;20015;-74
2022/11/04 07:36:20;;;;;;;;;;;;;;;13.14;53.82;99932.63;3140577;28;19943;-73
2022/11/04 07:37:52;;;;;;;;;;;;;;;13.12;53.93;99931.88;3143656;28;20308;-76
2022/11/04 07:39:24;;;;;;;;;;;;;;;13.14;53.87;99927.41;3140614;28;19947;-75
2022/11/04 07:40:57;;;;;;;;;;;;;;;13.18;53.77;99923.69;3132068;28;20465;-75
2022/11/04 07:42:29;;;;;;;;;;;;;;;13.23;53.81;99923.44;3131611;28;19933;-74
2022/11/04 07:44:04;;;;;;;;;;;;;;;13.25;53.67;99922.47;3131938;28;19986;-74
2022/11/04 07:45:35;;;;;;;;;;;;;;;13.26;53.65;99921.53;3131743;28;19929;-75
2022/11/04 07:47:07;;;;;;;;;;;;;;;13.30;53.44;99925.66;3138539;28;19977;-76
2022/11/04 07:48:39;;;;;;;;;;;;;;;13.34;53.45;99919.34;3137628;28;20325;-76
2022/11/04 07:50:11;;;;;;;;;;;;;;;13.36;53.39;99924.50;3132777;28;20355;-76
2022/11/04 07:51:42;;;;;;;;;;;;;;;13.36;53.91;99922.72;3140248;28;19924;-76
2022/11/04 07:53:14;;;;;;;;;;;;;;;13.40;53.55;99916.41;3147254;28;19939;-74
2022/11/04 07:54:45;;;;;;;;;;;;;;;13.44;53.90;99917.06;3131705;28;19959;-76
2022/11/04 07:56:18;;;;;;;;;;;;;;;13.49;53.90;99908.94;3132848;28;19920;-74
2022/11/04 07:57:50;;;;;;;;;;;;;;;13.52;54.24;99911.44;3132761;28;19920;-74
2022/11/04 07:59:22;;;;;;;;;;;;;;;13.49;55.01;99906.34;3133303;28;20368;-76
2022/11/04 08:00:57;;;;;;;;;;;;;;;13.44;55.29;99906.59;3137146;28;19981;-76
2022/11/04 08:02:29;;;;;;;;;;;;;;;13.45;55.72;99900.44;3136977;28;20015;-74
2022/11/04 08:04:01;;;;;;;;;;;;;;;13.47;55.58;99903.81;3132638;28;19936;-76
2022/11/04 08:05:33;;;;;;;;;;;;;;;13.54;55.18;99899.09;3135013;28;19928;-76
2022/11/04 08:07:06;;;;;;;;;;;;;;;13.58;55.16;99893.59;3141362;28;19920;-77
2022/11/04 08:08:38;;;;;;;;;;;;;;;13.61;55.33;99892.59;3132606;28;19927;-76
2022/11/04 08:10:10;;;;;;;;;;;;;;;13.60;55.29;99881.25;3133139;28;19925;-75
2022/11/04 08:11:43;;;;;;;;;;;;;;;13.65;54.91;99888.88;3139414;28;19927;-75
2022/11/04 08:13:14;;;;;;;;;;;;;;;13.69;54.78;99887.75;3132779;28;19931;-74
2022/11/04 08:14:46;;;;;;;;;;;;;;;13.75;54.94;99895.25;3140403;28;19974;-76
2022/11/04 08:16:18;;;;;;;;;;;;;;;13.78;54.76;99891.63;3143355;28;19920;-75
2022/11/04 08:17:50;;;;;;;;;;;;;;;13.75;54.89;99889.19;3137805;28;20011;-77
2022/11/04 08:19:21;;;;;;;;;;;;;;;13.76;54.86;99886.50;3133063;28;19932;-76
2022/11/04 08:20:53;;;;;;;;;;;;;;;13.76;54.99;99886.50;3134654;28;19927;-76
2022/11/04 08:22:24;;;;;;;;;;;;;;;13.77;55.22;99887.31;3143566;28;19947;-75
2022/11/04 08:23:56;;;;;;;;;;;;;;;13.81;55.17;99880.97;3141856;28;20031;-76
2022/11/04 08:25:28;;;;;;;;;;;;;;;13.83;55.07;99882.59;3132625;28;19921;-76
2022/11/04 08:27:01;;;;;;;;;;;;;;;13.80;55.20;99880.13;3132485;28;20357;-76
2022/11/04 08:28:33;;;;;;;;;;;;;;;13.80;55.20;99877.53;3133180;28;19921;-73
2022/11/04 08:30:05;;;;;;;;;;;;;;;13.84;55.20;99873.81;3133039;28;19920;-73
2022/11/04 08:31:37;;;;;;;;;;;;;;;13.86;55.31;99876.34;3132189;28;19955;-74
2022/11/04 08:33:09;;;;;;;;;;;;;;;13.83;55.58;99866.88;3132817;28;19932;-76
2022/11/04 08:34:41;;;;;;;;;;;;;;;13.87;55.56;99872.78;3132495;28;19999;-75
2022/11/04 08:36:12;;;;;;;;;;;;;;;13.84;56.06;99871.19;3134339;28;19925;-75
2022/11/04 08:37:44;;;;;;;;;;;;;;;13.81;56.51;99873.13;3144246;28;19924;-76
2022/11/04 08:39:15;;;;;;;;;;;;;;;13.82;56.12;99870.44;3139925;28;19924;-76